Time;durP1;ratioP1;P1;durP2;ratioP2;P2;SDS_P1;SDS_P2;PMS_P1;PMS_P2;Temp;Humidity;BMP_temperature;BMP_pressure;BME280_temperature;BME280_humidity;BME280_pressure;Samples;Min_cycle;Max_cycle;Signal;HPM_P1;HPM_P2
2023/08/28 00:00:43;;;;;;;23.55;3.78;;;;;;;19.15;56.08;98102.59;5075846;28;20065;-44
2023/08/28 00:03:08;;;;;;;12.05;1.73;;;;;;;19.17;55.61;98107.66;5091900;28;20071;-45
2023/08/28 00:05:35;;;;;;;2.85;1.20;;;;;;;19.15;55.85;98125.75;5093594;28;20044;-44
2023/08/28 00:08:00;;;;;;;3.92;1.42;;;;;;;19.18;55.79;98146.50;5093916;28;20020;-45
2023/08/28 00:10:26;;;;;;;13.90;1.77;;;;;;;19.23;55.81;98143.00;5093843;28;20075;-44
2023/08/28 00:12:52;;;;;;;8.82;1.50;;;;;;;19.17;55.75;98123.59;5092525;28;20043;-44
2023/08/28 00:15:18;;;;;;;7.13;1.30;;;;;;;19.08;55.69;98109.28;5093705;28;20115;-44
2023/08/28 00:17:43;;;;;;;3.75;1.38;;;;;;;18.94;55.82;98115.16;5092432;28;20501;-44
2023/08/28 00:20:09;;;;;;;11.02;1.67;;;;;;;18.82;56.27;98133.25;5092382;28;20052;-44
2023/08/28 00:22:36;;;;;;;9.20;2.05;;;;;;;18.84;56.68;98128.47;5093867;28;20393;-44
2023/08/28 00:25:03;;;;;;;4.70;1.15;;;;;;;18.94;56.29;98136.41;5092281;28;20031;-45
2023/08/28 00:27:29;;;;;;;10.52;2.38;;;;;;;18.98;56.36;98134.03;5093795;28;20385;-44
2023/08/28 00:29:55;;;;;;;9.07;1.90;;;;;;;19.00;56.29;98117.81;5092199;28;20110;-44
2023/08/28 00:32:21;;;;;;;15.50;1.88;;;;;;;19.00;56.05;98118.59;5093390;28;20016;-44
2023/08/28 00:34:47;;;;;;;6.03;1.25;;;;;;;19.00;56.23;98125.78;5093421;28;20084;-44
2023/08/28 00:37:12;;;;;;;8.57;1.10;;;;;;;19.01;56.10;98144.13;5093356;28;20070;-44
2023/08/28 00:39:38;;;;;;;7.05;1.85;;;;;;;18.99;56.09;98153.44;5091994;28;20426;-45
2023/08/28 00:42:04;;;;;;;4.43;1.15;;;;;;;18.98;55.88;98149.19;5093256;28;20489;-45
2023/08/28 00:44:30;;;;;;;6.80;1.35;;;;;;;18.95;56.16;98135.38;5092049;28;20072;-44
2023/08/28 00:46:56;;;;;;;3.78;1.23;;;;;;;19.01;56.18;98136.13;5093144;28;20032;-44
2023/08/28 00:49:22;;;;;;;1.23;1.00;;;;;;;19.01;55.93;98140.66;5091797;28;20020;-44
2023/08/28 00:51:48;;;;;;;6.82;1.30;;;;;;;18.98;55.93;98131.38;5093058;28;20028;-44
2023/08/28 00:54:15;;;;;;;2.03;0.82;;;;;;;18.96;56.06;98134.28;5091731;28;20028;-44
2023/08/28 00:56:41;;;;;;;4.75;1.10;;;;;;;18.96;56.02;98131.63;5091558;28;20024;-44
2023/08/28 00:59:08;;;;;;;2.42;0.98;;;;;;;18.86;55.88;98125.53;5091584;28;20116;-44
2023/08/28 01:01:33;;;;;;;5.50;1.30;;;;;;;18.79;56.31;98125.78;5091735;28;20068;-44
2023/08/28 01:03:59;;;;;;;6.85;1.50;;;;;;;18.84;56.16;98133.78;5092651;28;20133;-44
2023/08/28 01:06:37;;;;;;;5.10;1.15;;;;;;;18.93;56.05;98128.69;5092854;28;20043;-44
2023/08/28 01:09:13;;;;;;;2.70;0.75;;;;;;;18.96;55.68;98134.28;5091552;28;20028;-44
2023/08/28 01:11:54;;;;;;;7.63;1.20;;;;;;;18.87;55.66;98119.13;5093020;28;20478;-44
2023/08/28 01:14:26;;;;;;;3.33;0.98;;;;;;;18.83;55.68;98124.19;5092705;28;20101;-45
2023/08/28 01:16:57;;;;;;;4.45;1.10;;;;;;;18.81;55.80;98110.38;5092011;28;20458;-44
2023/08/28 01:19:35;;;;;;;1.90;0.95;;;;;;;18.72;56.04;98112.75;5092621;28;20024;-45
2023/08/28 01:22:23;;;;;;;9.07;1.33;;;;;;;18.72;56.07;98122.59;5092567;28;20031;-45
2023/08/28 01:25:08;;;;;;;6.90;1.20;;;;;;;18.75;55.84;98122.88;5092548;28;20032;-44
2023/08/28 01:27:35;;;;;;;2.83;1.10;;;;;;;18.71;56.22;98123.66;5091239;28;20509;-45
2023/08/28 01:30:11;;;;;;;5.93;1.30;;;;;;;18.56;56.08;98138.53;5091079;28;20024;-45
2023/08/28 01:32:38;;;;;;;5.78;1.60;;;;;;;18.54;56.52;98135.34;5091077;28;20028;-44
2023/08/28 01:35:15;;;;;;;5.68;0.93;;;;;;;18.60;56.36;98132.69;5092255;28;20115;-45
2023/08/28 01:38:07;;;;;;;5.60;1.17;;;;;;;18.59;56.32;98149.69;5092386;28;20107;-44
2023/08/28 01:40:41;;;;;;;2.47;0.95;;;;;;;18.56;56.38;98162.44;5092342;28;20032;-44
2023/08/28 01:43:10;;;;;;;3.72;1.13;;;;;;;18.63;56.29;98172.03;5092276;28;20020;-44
2023/08/28 01:45:38;;;;;;;4.75;1.05;;;;;;;18.57;56.21;98171.22;5092103;28;20028;-44
2023/08/28 01:48:05;;;;;;;2.97;1.10;;;;;;;18.51;56.52;98180.25;5090871;28;20098;-44
2023/08/28 01:50:31;;;;;;;7.03;1.27;;;;;;;18.40;56.89;98174.13;5092108;28;20035;-44
2023/08/28 01:52:57;;;;;;;15.23;2.30;;;;;;;18.42;56.92;98187.16;5092100;28;20024;-44
2023/08/28 01:55:45;;;;;;;5.13;1.20;;;;;;;18.45;56.90;98203.38;5091953;28;20024;-44
2023/08/28 01:58:14;;;;;;;2.55;0.95;;;;;;;18.45;56.94;98197.25;5090134;28;20035;-44
2023/08/28 02:00:40;;;;;;;7.03;1.77;;;;;;;18.51;56.89;98204.16;5091963;28;20439;-44
2023/08/28 02:03:08;;;;;;;11.68;2.78;;;;;;;18.46;56.98;98204.97;5091000;28;20560;-45
2023/08/28 02:05:34;;;;;;;2.80;0.98;;;;;;;18.49;57.20;98204.44;5090448;28;20044;-45
2023/08/28 02:08:00;;;;;;;3.25;0.80;;;;;;;18.63;57.12;98203.91;5090601;28;20038;-44
2023/08/28 02:10:26;;;;;;;3.17;0.80;;;;;;;18.70;56.69;98199.94;5091854;28;20051;-45
2023/08/28 02:12:51;;;;;;;9.35;1.63;;;;;;;18.74;56.60;98201.00;5092206;28;20062;-44
2023/08/28 02:15:17;;;;;;;8.35;1.00;;;;;;;18.74;56.31;98205.53;5091724;28;20019;-44
2023/08/28 02:17:43;;;;;;;31.67;2.42;;;;;;;18.66;56.45;98209.50;5090514;28;20034;-45
2023/08/28 02:20:09;;;;;;;20.33;1.80;;;;;;;18.67;56.84;98212.97;5073692;28;20047;-44
2023/08/28 02:22:35;;;;;;;21.40;1.88;;;;;;;18.68;56.71;98215.34;5090482;28;20024;-44
2023/08/28 02:25:01;;;;;;;5.05;1.17;;;;;;;18.70;56.67;98209.78;5090404;28;20501;-44
2023/08/28 02:27:27;;;;;;;61.03;3.72;;;;;;;18.68;56.56;98201.28;5091618;28;20024;-44
2023/08/28 02:29:53;;;;;;;25.75;2.10;;;;;;;18.63;56.45;98207.38;5095645;28;20381;-44
2023/08/28 02:32:18;;;;;;;16.08;1.88;;;;;;;18.51;56.77;98196.19;5095800;28;20024;-44
2023/08/28 02:34:44;;;;;;;16.17;1.88;;;;;;;18.44;56.80;98179.72;5096022;28;20031;-44
2023/08/28 02:37:10;;;;;;;2.67;0.90;;;;;;;18.36;56.47;98178.38;5094327;28;20124;-44
2023/08/28 02:39:36;;;;;;;2.85;1.00;;;;;;;18.26;56.97;98167.75;5095725;28;20028;-44
2023/08/28 02:42:02;;;;;;;4.68;1.00;;;;;;;18.16;57.29;98156.03;5095665;28;20020;-44
2023/08/28 02:44:28;;;;;;;2.30;0.70;;;;;;;18.09;57.50;98152.84;5095620;28;20497;-44
2023/08/28 02:46:53;;;;;;;3.00;0.95;;;;;;;18.06;57.58;98144.59;5095575;28;20027;-44
2023/08/28 02:49:19;;;;;;;3.70;0.88;;;;;;;17.98;57.91;98137.94;5094203;28;20020;-45
2023/08/28 02:51:45;;;;;;;3.72;1.00;;;;;;;18.01;57.96;98120.66;5095447;28;20032;-45
2023/08/28 02:54:10;;;;;;;4.38;1.17;;;;;;;17.99;57.83;98110.34;5095426;28;20077;-45
2023/08/28 02:56:39;;;;;;;4.97;1.02;;;;;;;18.00;57.96;98100.50;5095276;28;20036;-45
2023/08/28 02:59:05;;;;;;;4.75;1.17;;;;;;;18.16;57.81;98102.91;5095325;28;20027;-45
2023/08/28 03:01:34;;;;;;;3.65;1.30;;;;;;;18.23;57.09;98094.69;5093940;28;20468;-45
2023/08/28 03:04:04;;;;;;;3.75;0.82;;;;;;;18.16;57.18;98097.59;5093882;28;20024;-44
2023/08/28 03:06:37;;;;;;;4.88;0.80;;;;;;;18.05;57.34;98095.19;5095118;28;20525;-44
2023/08/28 03:09:04;;;;;;;5.50;0.90;;;;;;;18.01;57.21;98100.25;5093774;28;20126;-44
2023/08/28 03:11:30;;;;;;;4.40;1.15;;;;;;;17.94;57.56;98097.03;5093811;28;20121;-44
2023/08/28 03:13:56;;;;;;;5.47;0.82;;;;;;;17.89;57.66;98100.50;5095060;28;20048;-44
2023/08/28 03:16:21;;;;;;;4.57;0.82;;;;;;;17.82;57.65;98107.84;5094866;28;20123;-45
2023/08/28 03:18:48;;;;;;;2.78;0.98;;;;;;;17.80;58.01;98096.69;5095174;28;20027;-44
2023/08/28 03:21:14;;;;;;;4.35;0.80;;;;;;;17.87;58.09;98094.63;5093540;28;20378;-45
2023/08/28 03:23:40;;;;;;;2.33;0.60;;;;;;;17.93;57.97;98093.59;5093507;28;20102;-45
2023/08/28 03:26:06;;;;;;;5.28;0.73;;;;;;;18.01;57.72;98091.47;5094948;28;20044;-45
2023/08/28 03:28:31;;;;;;;2.72;0.70;;;;;;;17.97;57.40;98101.84;5094821;28;20051;-45
2023/08/28 03:30:58;;;;;;;2.15;0.70;;;;;;;17.89;57.46;98095.19;5094678;28;20470;-44
2023/08/28 03:33:24;;;;;;;3.05;1.00;;;;;;;17.73;57.62;98091.66;5093303;28;20586;-45
2023/08/28 03:35:50;;;;;;;3.20;0.80;;;;;;;17.66;58.14;98091.09;5094544;28;20081;-44
2023/08/28 03:38:15;;;;;;;3.63;0.73;;;;;;;17.74;57.90;98077.31;5094508;28;20024;-44
2023/08/28 03:40:41;;;;;;;2.65;0.85;;;;;;;17.82;57.69;98076.00;5092466;28;20060;-44
2023/08/28 03:43:06;;;;;;;4.78;1.00;;;;;;;17.78;57.60;98080.25;5093167;28;20498;-44
2023/08/28 03:45:32;;;;;;;2.22;0.77;;;;;;;17.87;57.78;98085.88;5094409;28;20442;-45
2023/08/28 03:47:58;;;;;;;3.42;0.88;;;;;;;17.90;57.40;98077.38;5093080;28;20056;-44
2023/08/28 03:50:24;;;;;;;4.70;0.98;;;;;;;17.89;57.51;98081.13;5092992;28;20548;-45
2023/08/28 03:52:50;;;;;;;6.45;1.40;;;;;;;17.91;57.55;98071.81;5094271;28;20026;-44
2023/08/28 03:55:15;;;;;;;6.82;1.20;;;;;;;18.00;57.23;98074.75;5094127;28;20408;-44
2023/08/28 03:57:41;;;;;;;3.55;0.95;;;;;;;18.01;56.89;98065.72;5094189;28;20023;-44
2023/08/28 04:00:13;;;;;;;11.77;1.92;;;;;;;18.02;56.93;98069.19;5094066;28;20055;-45
2023/08/28 04:02:39;;;;;;;5.53;1.67;;;;;;;18.06;56.85;98064.94;5094059;28;20115;-44
2023/08/28 04:05:06;;;;;;;5.53;0.85;;;;;;;18.07;56.29;98069.16;5093745;28;20090;-44
2023/08/28 04:07:32;;;;;;;7.70;3.72;;;;;;;17.98;56.34;98074.22;5093986;28;20020;-45
2023/08/28 04:09:58;;;;;;;11.98;8.48;;;;;;;17.90;56.75;98072.88;5093944;28;20371;-45
2023/08/28 04:12:24;;;;;;;94.70;49.42;;;;;;;17.95;56.83;98069.44;5093872;28;20032;-45
2023/08/28 04:14:50;;;;;;;48.35;19.48;;;;;;;17.99;56.86;98067.84;5092556;28;20107;-45
2023/08/28 04:17:16;;;;;;;29.17;20.58;;;;;;;17.90;56.54;98064.09;5093996;28;20473;-44
2023/08/28 04:19:42;;;;;;;47.60;14.98;;;;;;;17.83;57.03;98052.91;5093748;28;20028;-44
2023/08/28 04:22:08;;;;;;;21.88;10.68;;;;;;;17.81;57.43;98055.03;5093698;28;20405;-45
2023/08/28 04:24:34;;;;;;;32.92;11.70;;;;;;;17.72;57.40;98052.09;5093672;28;20020;-45
2023/08/28 04:26:59;;;;;;;21.77;6.07;;;;;;;17.62;57.92;98047.56;5093553;28;20549;-44
2023/08/28 04:29:25;;;;;;;22.70;5.45;;;;;;;17.54;58.38;98050.72;5093543;28;20524;-44
2023/08/28 04:31:52;;;;;;;13.38;5.05;;;;;;;17.49;58.82;98048.06;5092180;28;20028;-44
2023/08/28 04:34:18;;;;;;;18.23;4.30;;;;;;;17.43;58.95;98046.47;5093352;28;20031;-44
2023/08/28 04:36:44;;;;;;;13.60;3.08;;;;;;;17.33;59.09;98034.75;5093340;28;20023;-44
2023/08/28 04:39:09;;;;;;;5.90;1.70;;;;;;;17.21;59.23;98036.03;5093375;28;20020;-44
2023/08/28 04:41:35;;;;;;;27.02;3.75;;;;;;;17.04;59.79;98039.66;5093240;28;20043;-44
2023/08/28 04:44:01;;;;;;;30.55;3.63;;;;;;;17.00;60.68;98037.78;5093278;28;20016;-44
2023/08/28 04:46:28;;;;;;;5.60;1.75;;;;;;;17.02;60.62;98028.50;5091846;28;20043;-44
2023/08/28 04:48:54;;;;;;;11.93;2.30;;;;;;;16.98;60.94;98027.44;5075324;28;20020;-45
2023/08/28 04:51:19;;;;;;;25.27;2.60;;;;;;;16.92;61.16;98028.47;5091230;28;20077;-45
2023/08/28 04:53:45;;;;;;;30.10;3.13;;;;;;;16.88;61.65;98022.91;5091330;28;20511;-44
2023/08/28 04:56:11;;;;;;;5.07;1.48;;;;;;;16.82;61.72;98012.50;5091547;28;20031;-44
2023/08/28 04:58:37;;;;;;;41.08;2.40;;;;;;;16.73;62.12;98020.13;5092998;28;20090;-44
2023/08/28 05:01:03;;;;;;;15.95;1.75;;;;;;;16.79;62.60;98019.09;5093187;28;20474;-44
2023/08/28 05:03:29;;;;;;;863.10;71.22;;;;;;;16.87;62.56;98015.22;5091536;28;20024;-45
2023/08/28 05:05:54;;;;;;;1057.75;87.70;;;;;;;16.92;62.64;98013.38;5091323;28;20086;-44
2023/08/28 05:08:20;;;;;;;801.15;67.80;;;;;;;16.97;62.80;98002.78;5091448;28;20024;-44
2023/08/28 05:10:46;;;;;;;92.63;6.18;;;;;;;17.07;62.29;98002.03;5092772;28;20459;-44
2023/08/28 05:13:12;;;;;;;109.97;8.48;;;;;;;17.05;62.45;98001.50;5091405;28;20028;-45
2023/08/28 05:15:37;;;;;;;112.07;8.63;;;;;;;17.00;62.60;98003.31;5091251;28;20065;-45
2023/08/28 05:18:03;;;;;;;19.83;2.13;;;;;;;17.04;62.82;98002.53;5091304;28;20029;-44
2023/08/28 05:20:29;;;;;;;4.55;1.20;;;;;;;17.01;62.79;98007.59;5092550;28;20056;-44
2023/08/28 05:22:55;;;;;;;14.88;1.95;;;;;;;16.91;63.18;98011.78;5092564;28;20035;-44
2023/08/28 05:25:21;;;;;;;7.22;1.20;;;;;;;16.94;63.44;98007.81;5091191;28;20047;-44
2023/08/28 05:27:46;;;;;;;11.15;1.30;;;;;;;16.89;63.40;98021.84;5092515;28;20431;-44
2023/08/28 05:30:12;;;;;;;11.52;1.55;;;;;;;16.94;64.03;98024.53;5091033;28;20040;-44
2023/08/28 05:32:38;;;;;;;3.03;0.90;;;;;;;17.04;63.70;98010.50;5091119;28;20024;-44
2023/08/28 05:35:05;;;;;;;61.15;5.18;;;;;;;16.97;63.91;98029.28;5092374;28;20032;-44
2023/08/28 05:37:31;;;;;;;16.20;1.63;;;;;;;16.94;64.08;98029.81;5092522;28;20020;-44
2023/08/28 05:39:57;;;;;;;6.40;1.13;;;;;;;17.00;64.15;98029.84;5092246;28;20039;-44
2023/08/28 05:42:23;;;;;;;4.78;0.90;;;;;;;16.94;64.11;98032.47;5092519;28;20023;-44
2023/08/28 05:44:48;;;;;;;14.30;1.85;;;;;;;16.93;65.16;98041.47;5090902;28;20032;-44
2023/08/28 05:47:14;;;;;;;5.93;0.80;;;;;;;17.01;64.43;98044.69;5092174;28;20024;-44
2023/08/28 05:49:40;;;;;;;5.03;0.75;;;;;;;16.94;64.91;98043.06;5090869;28;20020;-44
2023/08/28 05:52:06;;;;;;;6.25;1.20;;;;;;;16.92;65.17;98039.88;5090712;28;20505;-44
2023/08/28 05:54:32;;;;;;;97.05;8.73;;;;;;;16.91;65.20;98043.56;5092100;28;20122;-44
2023/08/28 05:56:57;;;;;;;11.18;1.58;;;;;;;16.90;65.43;98044.66;5090664;28;20024;-44
2023/08/28 05:59:23;;;;;;;3.45;0.75;;;;;;;16.79;65.71;98048.25;5090678;28;20512;-44
2023/08/28 06:01:49;;;;;;;2.50;0.90;;;;;;;16.69;66.32;98051.63;5090658;28;20043;-44
2023/08/28 06:04:15;;;;;;;6.22;1.13;;;;;;;16.59;66.57;98048.91;5090079;28;20035;-44
2023/08/28 06:06:40;;;;;;;7.25;1.33;;;;;;;16.56;67.31;98060.03;5090678;28;20537;-44
2023/08/28 06:09:07;;;;;;;4.05;0.90;;;;;;;16.64;67.56;98066.69;5090579;28;20590;-44
2023/08/28 06:11:33;;;;;;;10.35;1.52;;;;;;;16.75;67.29;98065.72;5091884;28;20020;-45
2023/08/28 06:13:59;;;;;;;52.85;6.70;;;;;;;16.74;67.59;98069.41;5091869;28;20107;-43
2023/08/28 06:16:26;;;;;;;7.50;1.25;;;;;;;16.69;67.73;98077.34;5090447;28;20040;-44
2023/08/28 06:18:51;;;;;;;10.60;1.70;;;;;;;16.76;67.89;98073.41;5090661;28;20035;-44
2023/08/28 06:21:17;;;;;;;5.63;1.27;;;;;;;16.86;67.62;98077.19;5090438;28;20481;-44
2023/08/28 06:23:44;;;;;;;12.20;1.40;;;;;;;16.86;67.62;98082.50;5091798;28;20536;-44
2023/08/28 06:26:14;;;;;;;5.82;0.82;;;;;;;16.89;67.47;98072.19;5090345;28;20032;-44
2023/08/28 06:28:40;;;;;;;4.85;1.00;;;;;;;16.96;67.50;98077.25;5091595;28;20051;-44
2023/08/28 06:31:07;;;;;;;1.92;0.80;;;;;;;16.97;67.47;98071.72;5091627;28;20429;-44
2023/08/28 06:33:33;;;;;;;12.93;1.60;;;;;;;17.00;67.63;98066.94;5091704;28;20035;-44
2023/08/28 06:35:58;;;;;;;7.35;1.23;;;;;;;17.14;67.29;98060.13;5090296;28;20024;-44
2023/08/28 06:38:24;;;;;;;6.32;1.35;;;;;;;17.12;67.05;98060.41;5091616;28;20525;-44
2023/08/28 06:40:51;;;;;;;4.32;1.35;;;;;;;17.11;67.23;98060.66;5090264;28;20405;-44
2023/08/28 06:43:17;;;;;;;3.97;0.80;;;;;;;17.18;67.08;98063.84;5091573;28;20035;-44
2023/08/28 06:45:45;;;;;;;5.95;0.77;;;;;;;17.14;66.99;98066.25;5090332;28;20492;-44
2023/08/28 06:48:11;;;;;;;3.15;0.88;;;;;;;17.07;67.27;98064.88;5091519;28;20440;-44
2023/08/28 06:50:37;;;;;;;9.18;1.88;;;;;;;16.96;67.50;98064.81;5090200;28;20483;-44
2023/08/28 06:53:03;;;;;;;4.60;1.10;;;;;;;16.96;67.51;98059.53;5090190;28;20046;-44
2023/08/28 06:55:30;;;;;;;12.73;1.80;;;;;;;16.94;67.61;98058.97;5091575;28;20040;-43
2023/08/28 06:57:56;;;;;;;6.63;1.13;;;;;;;16.84;67.93;98060.75;5091417;28;20028;-43
2023/08/28 07:00:21;;;;;;;9.52;1.25;;;;;;;16.79;68.40;98069.47;5091409;28;20070;-44
2023/08/28 07:02:47;;;;;;;7.82;1.30;;;;;;;16.78;68.78;98067.84;5091383;28;20028;-43
2023/08/28 07:05:13;;;;;;;3.53;1.02;;;;;;;16.87;68.76;98060.25;5089799;28;20048;-44
2023/08/28 07:07:39;;;;;;;35.80;2.17;;;;;;;16.89;68.65;98066.88;5091351;28;20020;-44
2023/08/28 07:10:06;;;;;;;10.65;1.58;;;;;;;16.86;68.50;98066.59;5091537;28;20032;-44
2023/08/28 07:12:33;;;;;;;12.15;2.25;;;;;;;16.80;69.07;98057.78;5091261;28;20056;-44
2023/08/28 07:15:13;;;;;;;93.10;7.53;;;;;;;16.85;69.22;98067.66;5091666;28;20040;-44
2023/08/28 07:17:39;;;;;;;6.35;1.10;;;;;;;16.81;69.07;98055.97;5094958;28;20077;-43
2023/08/28 07:20:06;;;;;;;16.83;1.92;;;;;;;16.81;69.28;98064.72;5094873;28;20024;-43
2023/08/28 07:22:32;;;;;;;13.75;1.75;;;;;;;16.88;69.41;98065.31;5095131;28;20024;-43
2023/08/28 07:24:57;;;;;;;27.02;2.88;;;;;;;16.90;69.33;98062.38;5095139;28;20370;-43
2023/08/28 07:27:23;;;;;;;5.13;1.30;;;;;;;16.92;69.20;98060.28;5094847;28;20020;-43
2023/08/28 07:29:49;;;;;;;7.28;1.38;;;;;;;16.88;69.44;98065.31;5093484;28;20080;-43
2023/08/28 07:32:15;;;;;;;12.95;1.70;;;;;;;16.85;69.38;98049.13;5094751;28;20078;-43
2023/08/28 07:34:40;;;;;;;17.52;2.25;;;;;;;16.79;69.60;98056.19;5094726;28;20110;-43
2023/08/28 07:37:06;;;;;;;10.05;1.67;;;;;;;16.76;69.85;98048.75;5094782;28;20028;-43
2023/08/28 07:39:32;;;;;;;9.98;1.45;;;;;;;16.78;69.77;98058.06;5093349;28;20513;-44
2023/08/28 07:41:58;;;;;;;7.50;1.33;;;;;;;16.74;69.68;98058.81;5094534;28;20508;-43
2023/08/28 07:44:23;;;;;;;6.95;1.85;;;;;;;16.70;69.80;98045.28;5094476;28;20024;-43
2023/08/28 07:46:49;;;;;;;22.17;1.70;;;;;;;16.69;69.92;98041.03;5094410;28;20020;-44
2023/08/28 07:49:15;;;;;;;36.83;2.70;;;;;;;16.69;70.24;98035.75;5094416;28;20035;-43
2023/08/28 07:51:41;;;;;;;382.92;32.42;;;;;;;16.70;70.08;98045.28;5094308;28;20016;-44
2023/08/28 07:54:06;;;;;;;117.05;8.60;;;;;;;16.74;70.11;98042.91;5094260;28;20494;-43
2023/08/28 07:56:32;;;;;;;41.58;3.42;;;;;;;16.73;70.00;98042.13;5092787;28;20053;-43
2023/08/28 07:58:58;;;;;;;110.78;7.28;;;;;;;16.67;70.87;98032.53;5092841;28;20032;-43
2023/08/28 08:01:23;;;;;;;77.70;6.55;;;;;;;16.70;70.85;98044.47;5092821;28;20024;-43
2023/08/28 08:03:49;;;;;;;21.80;1.92;;;;;;;16.76;70.40;98054.06;5092824;28;20024;-44
2023/08/28 08:06:16;;;;;;;61.53;4.18;;;;;;;16.78;70.25;98052.75;5088066;28;20063;-43
2023/08/28 08:08:45;;;;;;;107.10;6.95;;;;;;;16.85;70.19;98052.56;5093966;28;20039;-44
2023/08/28 08:11:11;;;;;;;16.92;2.17;;;;;;;16.88;69.60;98051.25;5092738;28;20516;-43
2023/08/28 08:13:37;;;;;;;10.05;1.08;;;;;;;16.87;69.54;98049.66;5093864;28;20539;-44
2023/08/28 08:16:04;;;;;;;175.05;12.57;;;;;;;16.84;69.61;98048.31;5093760;28;20047;-43
2023/08/28 08:18:30;;;;;;;273.40;19.73;;;;;;;16.86;70.00;98048.88;5093830;28;20103;-43
2023/08/28 08:20:56;;;;;;;59.25;4.60;;;;;;;16.91;70.26;98035.63;5093711;28;20032;-43
2023/08/28 08:23:22;;;;;;;44.72;2.97;;;;;;;16.99;69.27;98054.75;5093686;28;20024;-43
2023/08/28 08:25:48;;;;;;;66.80;4.13;;;;;;;17.07;69.47;98046.31;5092095;28;20028;-43
2023/08/28 08:28:17;;;;;;;49.67;3.70;;;;;;;17.13;69.31;98061.19;5093890;28;20027;-43
2023/08/28 08:30:43;;;;;;;174.45;13.32;;;;;;;17.12;69.40;98060.41;5093547;28;20047;-43
2023/08/28 08:33:09;;;;;;;264.65;16.63;;;;;;;17.17;69.28;98067.56;5093465;28;20028;-43
2023/08/28 08:35:34;;;;;;;40.90;3.08;;;;;;;17.24;69.23;98054.06;5093346;28;20016;-43
2023/08/28 08:38:01;;;;;;;63.20;4.55;;;;;;;17.18;69.32;98071.81;5093336;28;20031;-43
2023/08/28 08:40:27;;;;;;;9.52;1.60;;;;;;;17.17;69.49;98083.47;5093324;28;20024;-43
2023/08/28 08:42:54;;;;;;;35.08;3.33;;;;;;;17.21;69.49;98068.66;5093566;28;20099;-44
2023/08/28 08:45:24;;;;;;;10.23;1.38;;;;;;;17.24;69.06;98073.41;5093258;28;20069;-43
2023/08/28 08:47:53;;;;;;;18.17;2.63;;;;;;;17.32;69.34;98074.78;5093228;28;20028;-43
2023/08/28 08:50:22;;;;;;;11.13;1.25;;;;;;;17.54;68.56;98078.03;5091833;28;20016;-44
2023/08/28 08:52:49;;;;;;;6.07;1.17;;;;;;;17.80;67.67;98077.34;5091818;28;20027;-43
2023/08/28 08:55:30;;;;;;;12.48;2.20;;;;;;;17.93;67.33;98076.88;5093000;28;20020;-44
2023/08/28 08:58:00;;;;;;;23.08;2.17;;;;;;;18.11;66.57;98076.34;5093105;28;20034;-44
2023/08/28 09:00:26;;;;;;;8.32;1.10;;;;;;;18.24;66.05;98080.34;5093005;28;20516;-43
2023/08/28 09:02:54;;;;;;;2.78;1.10;;;;;;;18.33;65.25;98078.75;5091719;28;20028;-43
2023/08/28 09:05:20;;;;;;;24.77;2.15;;;;;;;18.49;65.21;98076.91;5091343;28;20036;-44
2023/08/28 09:07:47;;;;;;;10.30;1.50;;;;;;;18.82;63.55;98079.28;5093110;28;20122;-44
2023/08/28 09:10:14;;;;;;;7.78;1.35;;;;;;;19.15;62.54;98068.00;5092840;28;20546;-43
2023/08/28 09:12:42;;;;;;;10.98;1.67;;;;;;;19.44;60.15;98077.25;5092702;28;20073;-44
2023/08/28 09:15:10;;;;;;;24.23;1.88;;;;;;;19.57;58.61;98063.31;5092587;28;20042;-43
2023/08/28 09:17:40;;;;;;;13.63;1.42;;;;;;;19.51;58.16;98072.41;5092807;28;20028;-43
2023/08/28 09:20:21;;;;;;;152.65;9.32;;;;;;;19.50;59.06;98076.94;5091275;28;20102;-44
2023/08/28 09:22:53;;;;;;;35.78;2.67;;;;;;;19.53;56.70;98049.75;5092553;28;20100;-43
2023/08/28 09:25:20;;;;;;;28.00;2.53;;;;;;;19.44;56.73;98074.56;5092547;28;20036;-44
2023/08/28 09:27:48;;;;;;;12.80;1.98;;;;;;;19.57;57.22;98073.97;5091165;28;20024;-43
2023/08/28 09:30:37;;;;;;;14.70;1.70;;;;;;;19.79;56.71;98054.19;5092690;28;20024;-44
2023/08/28 09:33:06;;;;;;;19.42;2.08;;;;;;;19.86;55.94;98071.44;5091109;28;20055;-44
2023/08/28 09:35:43;;;;;;;20.92;1.65;;;;;;;20.01;55.76;98067.09;5090965;28;20111;-44
2023/08/28 09:38:10;;;;;;;25.13;2.55;;;;;;;20.26;55.74;98071.41;5090475;28;20032;-44
2023/08/28 09:40:41;;;;;;;20.98;1.80;;;;;;;20.46;55.22;98068.59;5074263;28;20020;-45
2023/08/28 09:43:15;;;;;;;2.55;0.75;;;;;;;20.54;54.85;98062.69;5092506;28;20476;-43
2023/08/28 09:45:42;;;;;;;13.07;1.13;;;;;;;20.45;54.45;98063.56;5090901;28;20036;-44
2023/08/28 09:48:08;;;;;;;6.47;1.55;;;;;;;20.27;55.00;98067.69;5092168;28;20095;-44
2023/08/28 09:50:37;;;;;;;6.20;2.20;;;;;;;19.97;55.58;98068.72;5092148;28;20024;-44
2023/08/28 09:53:11;;;;;;;24.75;1.92;;;;;;;19.82;56.52;98061.59;5092146;28;20020;-43
2023/08/28 09:55:46;;;;;;;17.52;1.38;;;;;;;19.79;56.52;98052.31;5091914;28;20027;-44
2023/08/28 09:58:12;;;;;;;13.05;2.53;;;;;;;19.59;57.15;98055.06;5092176;28;20382;-43
2023/08/28 10:00:42;;;;;;;8.15;1.52;;;;;;;19.31;57.71;98059.97;5091896;28;20039;-44
2023/08/28 10:03:12;;;;;;;14.40;1.75;;;;;;;19.03;58.85;98056.88;5092228;28;20031;-44
2023/08/28 10:05:39;;;;;;;14.38;1.80;;;;;;;18.98;59.49;98053.47;5091624;28;20040;-44
2023/08/28 10:08:16;;;;;;;8.50;1.15;;;;;;;18.99;59.45;98053.16;5091870;28;20028;-44
2023/08/28 10:10:45;;;;;;;7.85;1.45;;;;;;;18.99;59.64;98066.47;5091950;28;20032;-44
2023/08/28 10:13:13;;;;;;;11.80;1.42;;;;;;;18.99;59.51;98068.34;5092118;28;20027;-44
2023/08/28 10:15:51;;;;;;;9.65;1.40;;;;;;;18.94;59.80;98071.81;5090414;28;20084;-44
2023/08/28 10:19:10;;;;;;;5.82;1.17;;;;;;;18.96;59.48;98061.69;5091826;28;20024;-44
2023/08/28 10:21:37;;;;;;;6.57;1.10;;;;;;;18.87;59.48;98082.72;5065687;28;20068;-44
2023/08/28 10:24:05;;;;;;;4.93;1.20;;;;;;;18.68;59.94;98079.00;5090482;28;20035;-44
2023/08/28 10:26:31;;;;;;;12.93;1.40;;;;;;;18.61;60.35;98078.47;5090771;28;20028;-43
2023/08/28 10:28:58;;;;;;;31.75;3.38;;;;;;;18.53;60.48;98071.81;5073656;28;20024;-44
2023/08/28 10:31:25;;;;;;;43.70;3.33;;;;;;;18.41;61.13;98084.59;5091709;28;20031;-44
2023/08/28 10:33:52;;;;;;;24.25;2.47;;;;;;;18.44;61.55;98082.22;5091702;28;20020;-44
2023/08/28 10:36:20;;;;;;;7.43;1.35;;;;;;;18.66;61.24;98078.47;5091542;28;20032;-44
2023/08/28 10:38:47;;;;;;;8.73;1.25;;;;;;;18.73;60.88;98068.34;5091608;28;20031;-44
2023/08/28 10:41:13;;;;;;;9.52;1.85;;;;;;;18.67;60.34;98062.28;5091557;28;20115;-44
2023/08/28 10:43:40;;;;;;;8.70;2.03;;;;;;;18.65;60.73;98069.72;5090376;28;20013;-44
2023/08/28 10:46:07;;;;;;;7.32;1.20;;;;;;;18.71;60.69;98073.97;5091528;28;20035;-44
2023/08/28 10:48:38;;;;;;;14.65;1.20;;;;;;;18.85;60.80;98068.09;5090308;28;20027;-44
2023/08/28 10:51:04;;;;;;;13.23;1.83;;;;;;;19.04;60.29;98081.63;5094022;28;20106;-44
2023/08/28 10:53:30;;;;;;;6.18;0.93;;;;;;;19.26;59.57;98073.31;5095420;28;20564;-44
2023/08/28 10:56:00;;;;;;;9.98;1.30;;;;;;;19.46;58.67;98067.13;5095332;28;20567;-44
2023/08/28 10:58:30;;;;;;;5.82;1.20;;;;;;;19.41;58.07;98072.44;5095350;28;20107;-44
2023/08/28 11:01:17;;;;;;;10.02;1.45;;;;;;;19.27;58.56;98075.69;5095571;28;20434;-44
2023/08/28 11:04:01;;;;;;;6.82;1.33;;;;;;;19.12;59.13;98079.19;5095245;28;20028;-44
2023/08/28 11:06:43;;;;;;;4.20;1.00;;;;;;;19.10;59.46;98075.22;5093661;28;20138;-44
2023/08/28 11:09:27;;;;;;;3.78;1.20;;;;;;;19.19;59.01;98068.25;5095264;28;20020;-44
2023/08/28 11:11:59;;;;;;;5.95;1.23;;;;;;;19.27;59.29;98077.56;5095044;28;20020;-44
2023/08/28 11:14:33;;;;;;;13.73;1.10;;;;;;;19.43;58.94;98067.66;5095007;28;20145;-44
2023/08/28 11:17:11;;;;;;;8.40;1.25;;;;;;;19.62;58.47;98065.16;5093624;28;20111;-44
2023/08/28 11:19:55;;;;;;;10.80;1.77;;;;;;;19.83;57.91;98077.31;5095230;28;20035;-45
2023/08/28 11:22:28;;;;;;;24.77;2.22;;;;;;;19.87;57.79;98069.56;5093548;28;20040;-45
2023/08/28 11:24:55;;;;;;;10.57;1.90;;;;;;;19.75;57.06;98076.03;5094823;28;20017;-44
2023/08/28 11:27:50;;;;;;;16.38;1.88;;;;;;;19.74;58.05;98074.44;5094848;28;20020;-44
2023/08/28 11:30:21;;;;;;;17.70;2.33;;;;;;;19.91;58.25;98073.28;5076280;28;20528;-44
2023/08/28 11:32:52;;;;;;;13.18;2.03;;;;;;;20.26;57.87;98082.09;5094644;28;20405;-44